createdAt,value
2019-04-20T00:00:59.550Z,63.2
2019-04-20T00:05:55.169Z,62.9
2019-04-20T00:11:00.091Z,62.8
2019-04-20T00:15:49.218Z,62.9
2019-04-20T00:20:45.829Z,63.2
2019-04-20T00:25:50.940Z,64
2019-04-20T00:30:58.476Z,63.1
2019-04-20T00:35:36.509Z,62.5
2019-04-20T00:40:35.542Z,62.2
2019-04-20T00:45:33.652Z,62.3
2019-04-20T00:50:44.268Z,62.2
2019-04-20T00:55:25.184Z,62.2
2019-04-20T01:00:36.743Z,61.9
2019-04-20T01:05:32.650Z,62.2
2019-04-20T01:10:15.217Z,62.4
2019-04-20T01:15:17.386Z,62.4
2019-04-20T01:20:08.459Z,62.4
2019-04-20T01:25:13.720Z,62.3
2019-04-20T01:30:09.858Z,62.2
2019-04-20T01:35:07.009Z,61.9
2019-04-20T01:39:59.156Z,62
2019-04-20T01:44:54.006Z,61.6
2019-04-20T01:49:57.385Z,60.9
2019-04-20T01:55:04.583Z,60.6
2019-04-20T01:59:54.021Z,60.5
2019-04-20T02:04:43.882Z,60.5
2019-04-20T02:09:43.031Z,60.1
2019-04-20T02:14:40.898Z,60.6
2019-04-20T02:19:41.203Z,60.8
2019-04-20T02:24:27.797Z,60.6
2019-04-20T02:29:44.147Z,60.2
2019-04-20T02:44:45.854Z,59.7
2019-04-20T02:54:33.821Z,59.7
2019-04-20T03:04:05.364Z,60.2
2019-04-20T03:09:19.674Z,60.2
2019-04-20T03:14:13.368Z,60.1
2019-04-20T03:19:07.517Z,60.3
2019-04-20T03:24:18.651Z,60.9
2019-04-20T03:29:00.960Z,61.5
2019-04-20T03:38:57.156Z,62.3
2019-04-20T03:43:37.346Z,62.4
2019-04-20T03:48:51.386Z,62.5
2019-04-20T03:53:49.847Z,62.6
2019-04-20T03:58:44.015Z,63.2
2019-04-20T04:08:30.260Z,63.7
2019-04-20T04:13:20.791Z,63.9
2019-04-20T04:18:24.082Z,63.9
2019-04-20T04:23:28.531Z,63.9
2019-04-20T04:28:24.770Z,63.6
2019-04-20T04:33:45.533Z,63.5
2019-04-20T04:38:26.962Z,63.4
2019-04-20T04:43:19.600Z,63.3
2019-04-20T04:47:58.311Z,63.8
2019-04-20T04:53:04.413Z,62.6
2019-04-20T04:57:51.893Z,63.4
2019-04-20T05:02:53.705Z,64
2019-04-20T05:07:55.461Z,64.3
2019-04-20T05:12:43.996Z,64
2019-04-20T05:18:01.414Z,64.1
2019-04-20T05:22:55.721Z,64.1
2019-04-20T05:27:55.912Z,64.2
2019-04-20T05:32:42.683Z,63.6
2019-04-20T05:37:52.831Z,63.7
2019-04-20T05:42:48.080Z,63.4
2019-04-20T05:47:42.729Z,62.2
2019-04-20T05:57:34.728Z,61
2019-04-20T06:02:31.461Z,60.6
2019-04-20T06:07:29.300Z,58.4
2019-04-20T06:12:31.287Z,57.6
2019-04-20T06:17:24.985Z,56.1
2019-04-20T06:22:25.970Z,55.1
2019-04-20T06:27:14.245Z,53.2
2019-04-20T06:32:20.073Z,51.6
2019-04-20T06:37:15.720Z,52.6
2019-04-20T06:47:08.165Z,52.7
2019-04-20T06:52:04.322Z,53.3
2019-04-20T06:56:59.299Z,53.6
2019-04-20T07:02:02.663Z,51.7
2019-04-20T07:07:02.160Z,50.5
2019-04-20T07:11:50.226Z,47.9
2019-04-20T07:16:44.452Z,46
2019-04-20T07:21:51.666Z,44.9
2019-04-20T07:26:43.913Z,45.4
2019-04-20T07:31:35.970Z,44.5
2019-04-20T07:36:37.289Z,43.7
2019-04-20T07:41:41.744Z,43.8
2019-04-20T07:46:46.701Z,43
2019-04-20T07:51:14.079Z,43.1
2019-04-20T07:56:23.198Z,44.2
2019-04-20T08:01:28.066Z,44.6
2019-04-20T08:06:04.988Z,44.9
2019-04-20T08:11:10.838Z,44.3
2019-04-20T08:16:06.208Z,43
2019-04-20T08:21:07.949Z,44.3
2019-04-20T08:25:56.420Z,40.4
2019-04-20T08:30:59.283Z,40
2019-04-20T08:36:03.924Z,39.6
2019-04-20T08:40:53.091Z,38.8
2019-04-20T08:45:50.748Z,38
2019-04-20T08:50:50.323Z,38.6
2019-04-20T08:55:41.202Z,38.7
2019-04-20T09:00:29.229Z,37.1
2019-04-20T09:05:34.493Z,37.1
2019-04-20T09:10:37.860Z,37.2
2019-04-20T09:15:14.728Z,37.1
2019-04-20T09:20:16.090Z,36.7
2019-04-20T09:30:18.627Z,37
2019-04-20T09:35:19.122Z,35.9
2019-04-20T09:40:14.123Z,35.6
2019-04-20T09:44:59.464Z,35
2019-04-20T09:50:03.176Z,35.6
2019-04-20T09:55:02.334Z,34.3
2019-04-20T10:00:05.220Z,33.6
2019-04-20T10:04:45.150Z,33.3
2019-04-20T10:09:45.096Z,32.1
2019-04-20T10:14:40.670Z,33.3
2019-04-20T10:19:39.380Z,33.7
2019-04-20T10:24:34.727Z,34.1
2019-04-20T10:29:31.279Z,34.3
2019-04-20T10:34:28.441Z,33.9
2019-04-20T10:39:24.620Z,32.8
2019-04-20T10:44:20.899Z,31.4
2019-04-20T10:49:17.536Z,31.2
2019-04-20T10:54:14.365Z,30.6
2019-04-20T10:59:11.821Z,31.2
2019-04-20T11:04:08.553Z,31.5
2019-04-20T11:09:06.779Z,31.7
2019-04-20T11:14:08.088Z,31.7
2019-04-20T11:18:59.124Z,32.5
2019-04-20T11:23:56.301Z,32.4
2019-04-20T11:28:53.257Z,31.7
2019-04-20T11:33:50.252Z,30.4
2019-04-20T11:38:47.215Z,30.4
2019-04-20T11:43:44.103Z,30.5
2019-04-20T11:48:41.421Z,30.2
2019-04-20T11:53:38.646Z,29.8
2019-04-20T11:58:36.143Z,30.2
2019-04-20T12:03:42.090Z,30.4
2019-04-20T12:08:29.372Z,30.5
2019-04-20T12:13:26.859Z,30.4
2019-04-20T12:18:23.321Z,30.2
2019-04-20T12:23:20.276Z,29.1
2019-04-20T12:28:17.933Z,29.2
2019-04-20T12:33:13.981Z,29.7
2019-04-20T12:38:10.675Z,30.2
2019-04-20T12:43:07.359Z,31.1
2019-04-20T12:48:04.088Z,30.9
2019-04-20T12:53:02.207Z,31
2019-04-20T12:57:58.620Z,30.6
2019-04-20T13:02:55.690Z,30.4
2019-04-20T13:07:56.365Z,30.9
2019-04-20T13:12:50.215Z,31.3
2019-04-20T13:17:48.004Z,32
2019-04-20T13:22:44.212Z,32
2019-04-20T13:27:40.907Z,31.9
2019-04-20T13:32:38.111Z,31.2
2019-04-20T13:37:36.767Z,31.2
2019-04-20T13:42:33.057Z,31.4
2019-04-20T13:47:28.740Z,31.3
2019-04-20T13:52:26.795Z,31.6
2019-04-20T13:57:23.897Z,31.7
2019-04-20T14:02:20.470Z,31.6
2019-04-20T14:07:18.376Z,31.7
2019-04-20T14:12:22.980Z,31.1
2019-04-20T14:17:10.957Z,30.9
2019-04-20T14:22:08.331Z,30.4
2019-04-20T14:27:04.976Z,31.1
2019-04-20T14:32:03.620Z,30.7
2019-04-20T14:37:00.949Z,30.8
2019-04-20T14:41:58.241Z,30.6
2019-04-20T14:46:55.856Z,29.8
2019-04-20T14:51:54.559Z,30.2
2019-04-20T14:56:49.532Z,30.2
2019-04-20T15:01:45.764Z,31
2019-04-20T15:06:42.500Z,31.5
2019-04-20T15:11:41.478Z,31
2019-04-20T15:16:36.168Z,31.2
2019-04-20T15:21:33.511Z,31
2019-04-20T15:31:28.164Z,31.8
2019-04-20T15:36:24.222Z,31.6
2019-04-20T15:41:21.051Z,31.9
2019-04-20T15:46:19.328Z,30.6
2019-04-20T15:51:17.048Z,28.7
2019-04-20T15:56:12.251Z,28.8
2019-04-20T16:01:10.351Z,28.9
2019-04-20T16:06:07.309Z,29.8
2019-04-20T16:11:04.522Z,30.3
2019-04-20T16:15:59.539Z,30.8
2019-04-20T16:21:03.434Z,31.6
2019-04-20T16:25:53.440Z,31.6
2019-04-20T16:30:51.678Z,32.3
2019-04-20T16:35:47.736Z,32.5
2019-04-20T16:40:44.676Z,32.3
2019-04-20T16:45:41.682Z,32.7
2019-04-20T16:50:38.511Z,33.2
2019-04-20T16:55:36.939Z,33.4
2019-04-20T17:00:33.505Z,33.9
2019-04-20T17:05:31.506Z,33.8
2019-04-20T17:10:27.137Z,34
2019-04-20T17:15:25.436Z,34.6
2019-04-20T17:20:19.848Z,34.4
2019-04-20T17:25:16.640Z,34.2
2019-04-20T17:30:17.572Z,34.2
2019-04-20T17:35:20.478Z,34.2
2019-04-20T17:40:29.661Z,34
2019-04-20T17:45:10.165Z,34.1
2019-04-20T17:50:19.812Z,34.3
2019-04-20T17:54:58.676Z,34.8
2019-04-20T17:59:59.658Z,35.5
2019-04-20T18:05:18.739Z,35.8
2019-04-20T18:10:11.022Z,35.7
2019-04-20T18:15:00.287Z,36.1
2019-04-20T18:19:44.985Z,36.2
2019-04-20T18:25:01.457Z,36.6
2019-04-20T18:29:56.395Z,36.3
2019-04-20T18:34:36.230Z,36.5
2019-04-20T18:39:37.312Z,36.7
2019-04-20T18:44:46.040Z,36.8
2019-04-20T18:49:38.349Z,37.1
2019-04-20T18:54:28.481Z,37.4
2019-04-20T18:59:23.288Z,37.5
2019-04-20T19:04:19.687Z,37.8
2019-04-20T19:09:21.280Z,37.6
2019-04-20T19:14:17.940Z,37.6
2019-04-20T19:19:19.784Z,38.1
2019-04-20T19:24:12.149Z,38.1
2019-04-20T19:29:13.911Z,38.1
2019-04-20T19:34:18.387Z,38.2
2019-04-20T19:44:06.941Z,38.1
2019-04-20T19:48:58.231Z,38
2019-04-20T19:54:06.125Z,37.9
2019-04-20T19:58:56.199Z,38.1
2019-04-20T20:03:41.666Z,38.1
2019-04-20T20:08:39.725Z,38.3
2019-04-20T20:13:41.818Z,38.3
2019-04-20T20:18:45.139Z,38.3
2019-04-20T20:23:27.892Z,38.4
2019-04-20T20:28:32.998Z,38.5
2019-04-20T20:33:39.102Z,38.8
2019-04-20T20:38:25.498Z,39.9
2019-04-20T20:43:22.560Z,40.3
2019-04-20T20:48:23.973Z,40.7
2019-04-20T20:53:16.193Z,41.8
2019-04-20T20:58:11.261Z,42.3
2019-04-20T21:03:05.956Z,42.8
2019-04-20T21:07:59.634Z,42.8
2019-04-20T21:12:59.597Z,42.7
2019-04-20T21:18:15.232Z,43.4
2019-04-20T21:23:06.774Z,43
2019-04-20T21:27:46.582Z,43.7
2019-04-20T21:32:46.919Z,43.7
2019-04-20T21:37:41.058Z,44.5
2019-04-20T21:42:44.209Z,44.5
2019-04-20T21:47:37.450Z,44.6
2019-04-20T21:52:37.767Z,45.3
2019-04-20T21:57:31.235Z,45.9
2019-04-20T22:02:30.566Z,46.4
2019-04-20T22:07:22.766Z,46.3
2019-04-20T22:12:20.102Z,46.3
2019-04-20T22:17:21.034Z,46.4
2019-04-20T22:22:20.252Z,46.3
2019-04-20T22:32:10.094Z,46.7
2019-04-20T22:37:04.348Z,47.2
2019-04-20T22:42:07.042Z,47.2
2019-04-20T22:46:58.470Z,47.6
2019-04-20T22:52:02.655Z,47.6
2019-04-20T22:57:02.975Z,47.2
2019-04-20T23:01:55.143Z,47.1
2019-04-20T23:06:49.629Z,46.7
2019-04-20T23:11:42.604Z,47.3
2019-04-20T23:16:43.678Z,47.2
2019-04-20T23:21:39.952Z,47.4
2019-04-20T23:26:36.658Z,47.8
2019-04-20T23:31:30.702Z,47.9
2019-04-20T23:36:35.319Z,48.5
2019-04-20T23:41:24.028Z,48.6
2019-04-20T23:46:25.750Z,49.2
2019-04-20T23:51:40.437Z,49.4
2019-04-20T23:56:17.315Z,49.2
